createdAt,value
2022-11-23T00:00:16.206Z,6.80
2022-11-23T00:03:01.549Z,6.80
2022-11-23T00:05:46.962Z,6.80
2022-11-23T00:08:32.394Z,6.80
2022-11-23T00:11:19.048Z,6.90
2022-11-23T00:14:04.437Z,6.80
2022-11-23T00:16:49.490Z,6.80
2022-11-23T00:19:34.940Z,6.80
2022-11-23T00:22:20.981Z,6.80
2022-11-23T00:25:06.618Z,6.80
2022-11-23T00:27:51.768Z,6.80
2022-11-23T00:30:37.137Z,6.80
2022-11-23T00:33:22.782Z,6.80
2022-11-23T00:36:11.785Z,6.90
2022-11-23T00:38:58.708Z,6.90
2022-11-23T00:41:44.118Z,6.90
2022-11-23T00:44:29.640Z,6.90
2022-11-23T00:47:15.049Z,6.90
2022-11-23T00:50:00.418Z,6.90
2022-11-23T00:52:45.803Z,6.90
2022-11-23T00:55:31.132Z,6.90
2022-11-23T00:58:16.594Z,6.90
2022-11-23T01:01:06.497Z,6.80
2022-11-23T01:03:54.414Z,6.80
2022-11-23T01:06:40.476Z,6.80
2022-11-23T01:09:26.815Z,6.90
2022-11-23T01:12:12.190Z,6.90
2022-11-23T01:14:57.581Z,6.80
2022-11-23T01:17:42.872Z,6.70
2022-11-23T01:20:28.324Z,6.90
2022-11-23T01:23:13.769Z,6.90
2022-11-23T01:26:08.222Z,7.00
2022-11-23T01:28:53.461Z,7.00
2022-11-23T01:31:44.848Z,7.00
2022-11-23T01:34:31.837Z,6.90
2022-11-23T01:37:17.306Z,7.00
2022-11-23T01:40:02.368Z,7.00
2022-11-23T01:42:53.663Z,7.10
2022-11-23T01:45:57.209Z,7.10
2022-11-23T01:48:47.306Z,7.10
2022-11-23T01:51:37.099Z,7.10
2022-11-23T01:54:28.114Z,7.10
2022-11-23T01:57:22.513Z,7.10
2022-11-23T02:00:08.486Z,7.10
2022-11-23T02:03:00.295Z,7.10
2022-11-23T02:05:49.554Z,7.00
2022-11-23T02:08:35.141Z,7.00
2022-11-23T02:11:20.587Z,6.90
2022-11-23T02:14:05.875Z,6.80
2022-11-23T02:16:51.712Z,6.80
2022-11-23T02:19:59.779Z,6.90
2022-11-23T02:23:03.892Z,6.80
2022-11-23T02:26:03.710Z,6.80
2022-11-23T02:28:58.308Z,6.80
2022-11-23T02:31:43.472Z,6.80
2022-11-23T02:34:28.902Z,6.70
2022-11-23T02:37:14.408Z,6.70
2022-11-23T02:40:01.549Z,6.80
2022-11-23T02:42:48.569Z,6.80
2022-11-23T02:45:50.956Z,6.90
2022-11-23T02:48:36.065Z,6.90
2022-11-23T02:51:21.595Z,6.90
2022-11-23T02:54:06.778Z,7.00
2022-11-23T02:56:52.033Z,6.90
2022-11-23T02:59:37.446Z,7.00
2022-11-23T03:02:22.608Z,7.00
2022-11-23T03:05:08.650Z,7.00
2022-11-23T03:07:54.214Z,7.00
2022-11-23T03:10:39.211Z,6.90
2022-11-23T03:13:24.573Z,6.70
2022-11-23T03:16:10.223Z,6.60
2022-11-23T03:18:55.548Z,6.70
2022-11-23T03:21:40.572Z,6.70
2022-11-23T03:24:26.064Z,6.70
2022-11-23T03:27:11.466Z,6.80
2022-11-23T03:29:56.682Z,6.70
2022-11-23T03:32:42.181Z,6.70
2022-11-23T03:35:27.479Z,6.70
2022-11-23T03:38:13.341Z,6.70
2022-11-23T03:40:58.655Z,6.70
2022-11-23T03:43:44.134Z,6.70
2022-11-23T03:46:29.758Z,6.80
2022-11-23T03:49:14.798Z,6.70
2022-11-23T03:52:00.220Z,6.70
2022-11-23T03:54:46.982Z,6.60
2022-11-23T03:57:32.128Z,6.70
2022-11-23T04:00:17.825Z,6.60
2022-11-23T04:03:03.256Z,6.60
2022-11-23T04:05:48.777Z,6.60
2022-11-23T04:08:34.037Z,6.60
2022-11-23T04:11:19.626Z,6.60
2022-11-23T04:14:05.362Z,6.50
2022-11-23T04:16:50.624Z,6.50
2022-11-23T04:19:35.978Z,6.50
2022-11-23T04:22:21.297Z,6.60
2022-11-23T04:25:07.004Z,6.60
2022-11-23T04:27:52.496Z,6.60
2022-11-23T04:30:37.818Z,6.60
2022-11-23T04:33:23.190Z,6.70
2022-11-23T04:36:08.846Z,6.70
2022-11-23T04:38:53.996Z,6.70
2022-11-23T04:41:39.766Z,6.70
2022-11-23T04:44:24.798Z,6.70
2022-11-23T04:47:11.421Z,6.70
2022-11-23T04:49:56.740Z,6.70
2022-11-23T04:52:42.241Z,6.80
2022-11-23T04:55:27.552Z,6.80
2022-11-23T04:58:13.238Z,6.80
2022-11-23T05:00:59.270Z,6.90
2022-11-23T05:03:44.805Z,6.90
2022-11-23T05:06:30.317Z,6.90
2022-11-23T05:09:15.896Z,6.90
2022-11-23T05:12:00.915Z,6.90
2022-11-23T05:14:46.807Z,6.90
2022-11-23T05:17:33.599Z,6.90
2022-11-23T05:20:19.037Z,6.80
2022-11-23T05:23:04.471Z,6.90
2022-11-23T05:25:49.968Z,6.80
2022-11-23T05:28:40.608Z,6.80
2022-11-23T05:31:26.439Z,6.90
2022-11-23T05:34:11.909Z,7.00
2022-11-23T05:36:57.348Z,6.90
2022-11-23T05:39:42.867Z,6.90
2022-11-23T05:42:28.330Z,6.80
2022-11-23T05:45:13.906Z,6.80
2022-11-23T05:47:59.860Z,6.80
2022-11-23T05:50:45.210Z,6.90
2022-11-23T05:53:31.008Z,6.90
2022-11-23T05:56:16.258Z,6.90
2022-11-23T05:59:01.756Z,6.80
2022-11-23T06:01:47.052Z,6.90
2022-11-23T06:04:32.449Z,6.90
2022-11-23T06:07:17.667Z,6.90
2022-11-23T06:10:04.473Z,6.90
2022-11-23T06:12:52.744Z,7.00
2022-11-23T06:15:37.753Z,7.00
2022-11-23T06:18:24.128Z,7.10
2022-11-23T06:21:09.645Z,7.00
2022-11-23T06:23:54.898Z,6.90
2022-11-23T06:26:40.417Z,6.80
2022-11-23T06:29:25.814Z,6.80
2022-11-23T06:32:11.298Z,6.80
2022-11-23T06:34:59.522Z,6.90
2022-11-23T06:37:49.270Z,7.00
2022-11-23T06:40:34.564Z,7.00
2022-11-23T06:43:20.003Z,7.00
2022-11-23T06:46:07.538Z,7.00
2022-11-23T06:48:52.867Z,7.00
2022-11-23T06:51:38.409Z,6.90
2022-11-23T06:54:27.309Z,7.00
2022-11-23T06:57:12.996Z,7.00
2022-11-23T06:59:58.199Z,7.10
2022-11-23T07:02:43.651Z,7.00
2022-11-23T07:05:29.032Z,7.00
2022-11-23T07:08:15.028Z,7.00
2022-11-23T07:11:01.652Z,6.90
2022-11-23T07:13:47.558Z,6.80
2022-11-23T07:16:32.866Z,6.70
2022-11-23T07:19:18.358Z,6.70
2022-11-23T07:22:03.852Z,6.80
2022-11-23T07:24:49.311Z,6.70
2022-11-23T07:27:34.802Z,6.80
2022-11-23T07:30:20.790Z,6.80
2022-11-23T07:33:11.561Z,6.80
2022-11-23T07:36:00.524Z,6.80
2022-11-23T07:38:46.091Z,6.80
2022-11-23T07:41:31.397Z,6.90
2022-11-23T07:44:16.676Z,6.90
2022-11-23T07:47:01.950Z,7.00
2022-11-23T07:49:47.491Z,6.90
2022-11-23T07:52:33.219Z,6.80
2022-11-23T07:55:18.157Z,6.70
2022-11-23T07:58:04.217Z,6.80
2022-11-23T08:00:49.522Z,6.90
2022-11-23T08:03:34.901Z,6.80
2022-11-23T08:06:20.242Z,6.70
2022-11-23T08:09:05.594Z,6.70
2022-11-23T08:11:51.059Z,6.80
2022-11-23T08:14:36.469Z,6.70
2022-11-23T08:17:21.973Z,6.70
2022-11-23T08:20:07.764Z,6.80
2022-11-23T08:22:55.782Z,6.90
2022-11-23T08:25:41.492Z,6.90
2022-11-23T08:28:26.576Z,6.80
2022-11-23T08:31:12.905Z,6.80
2022-11-23T08:34:03.071Z,6.80
2022-11-23T08:36:48.882Z,7.00
2022-11-23T08:39:34.298Z,7.00
2022-11-23T08:42:19.648Z,7.10
2022-11-23T08:45:06.538Z,7.10
2022-11-23T08:47:52.954Z,7.10
2022-11-23T08:50:38.730Z,6.90
2022-11-23T08:53:23.941Z,7.00
2022-11-23T08:56:10.109Z,7.10
2022-11-23T08:58:55.321Z,7.10
2022-11-23T09:01:40.724Z,7.30
2022-11-23T09:04:27.644Z,7.40
2022-11-23T09:07:13.126Z,7.40
2022-11-23T09:09:58.354Z,7.50
2022-11-23T09:12:43.788Z,7.40
2022-11-23T09:15:29.701Z,7.40
2022-11-23T09:18:15.176Z,7.40
2022-11-23T09:21:03.978Z,7.50
2022-11-23T09:23:48.987Z,7.40
2022-11-23T09:26:34.497Z,7.50
2022-11-23T09:29:19.788Z,7.60
2022-11-23T09:32:05.306Z,7.70
2022-11-23T09:34:50.767Z,7.70
2022-11-23T09:37:36.442Z,7.60
2022-11-23T09:40:22.166Z,7.60
2022-11-23T09:43:28.430Z,7.50
2022-11-23T09:46:36.738Z,7.50
2022-11-23T09:49:29.958Z,7.40
2022-11-23T09:52:19.156Z,7.50
2022-11-23T09:55:21.332Z,7.60
2022-11-23T09:58:07.344Z,7.60
2022-11-23T10:01:05.137Z,7.50
2022-11-23T10:03:51.089Z,7.70
2022-11-23T10:06:42.093Z,7.80
2022-11-23T10:09:47.390Z,8.00
2022-11-23T10:12:40.318Z,8.00
2022-11-23T10:15:37.917Z,8.20
2022-11-23T10:18:51.174Z,8.30
2022-11-23T10:21:52.040Z,8.30
2022-11-23T10:24:50.010Z,8.30
2022-11-23T10:27:35.501Z,8.40
2022-11-23T10:30:20.894Z,8.40
2022-11-23T10:33:37.736Z,8.30
2022-11-23T10:36:23.218Z,8.20
2022-11-23T10:39:34.739Z,8.40
2022-11-23T10:42:43.570Z,8.40
2022-11-23T10:45:29.635Z,8.40
2022-11-23T10:48:34.843Z,8.30
2022-11-23T10:51:23.156Z,8.10
2022-11-23T10:54:46.689Z,8.00
2022-11-23T10:57:37.017Z,7.80
2022-11-23T11:00:28.757Z,7.90
2022-11-23T11:03:23.750Z,8.00
2022-11-23T11:06:10.965Z,8.00
2022-11-23T11:09:03.156Z,8.10
2022-11-23T11:11:54.717Z,8.00
2022-11-23T11:15:10.765Z,7.90
2022-11-23T11:17:58.342Z,7.80
2022-11-23T11:20:45.521Z,7.80
2022-11-23T11:23:33.127Z,7.80
2022-11-23T11:26:22.342Z,7.90
2022-11-23T11:29:19.453Z,7.90
2022-11-23T11:32:06.515Z,8.00
2022-11-23T11:35:20.644Z,8.10
2022-11-23T11:38:15.068Z,8.30
2022-11-23T11:41:07.054Z,8.30
2022-11-23T11:44:05.886Z,8.20
2022-11-23T11:47:00.540Z,8.10
2022-11-23T11:49:48.265Z,8.20
2022-11-23T11:52:39.247Z,8.10
2022-11-23T11:55:46.500Z,8.30
2022-11-23T11:58:36.781Z,8.70
2022-11-23T12:02:15.856Z,9.10
2022-11-23T12:05:23.998Z,9.20
2022-11-23T12:08:46.565Z,9.50
2022-11-23T12:11:32.573Z,9.30
2022-11-23T12:14:18.465Z,9.20
2022-11-23T12:17:33.376Z,9.30
2022-11-23T12:20:24.879Z,9.20
2022-11-23T12:23:26.161Z,9.20
2022-11-23T12:26:53.274Z,9.10
2022-11-23T12:30:15.953Z,9.00
2022-11-23T12:33:07.342Z,9.00
2022-11-23T12:36:23.848Z,9.00
2022-11-23T12:39:54.224Z,9.00
2022-11-23T12:42:48.226Z,9.00
2022-11-23T12:45:55.640Z,9.00
2022-11-23T12:49:10.636Z,8.80
2022-11-23T12:52:14.284Z,8.50
2022-11-23T12:55:24.778Z,8.40
2022-11-23T12:58:29.973Z,8.40
2022-11-23T13:01:47.257Z,8.30
2022-11-23T13:04:50.873Z,8.20
2022-11-23T13:07:49.429Z,8.30
2022-11-23T13:10:50.035Z,8.50
2022-11-23T13:13:55.511Z,8.70
2022-11-23T13:16:59.707Z,8.70
2022-11-23T13:20:04.479Z,8.70
2022-11-23T13:22:50.662Z,8.60
2022-11-23T13:25:36.286Z,8.70
2022-11-23T13:28:30.051Z,8.80
2022-11-23T13:31:16.157Z,9.00
2022-11-23T13:34:44.439Z,9.20
2022-11-23T13:37:29.872Z,9.30
2022-11-23T13:40:26.625Z,9.40
2022-11-23T13:43:37.031Z,9.60
2022-11-23T13:46:28.753Z,9.90
2022-11-23T13:49:36.583Z,10.00
2022-11-23T13:52:21.733Z,10.00
2022-11-23T13:55:13.011Z,10.10
2022-11-23T13:58:26.320Z,10.20
2022-11-23T14:01:11.528Z,10.20
2022-11-23T14:03:57.069Z,10.40
2022-11-23T14:06:47.767Z,10.60
2022-11-23T14:09:43.822Z,10.60
2022-11-23T14:12:57.965Z,10.60
2022-11-23T14:15:47.030Z,10.70
2022-11-23T14:18:53.706Z,10.80
2022-11-23T14:21:53.813Z,10.80
2022-11-23T14:24:54.758Z,10.80
2022-11-23T14:28:14.687Z,10.60
2022-11-23T14:31:24.413Z,10.40
2022-11-23T14:34:48.175Z,10.10
2022-11-23T14:37:44.647Z,10.20
2022-11-23T14:40:54.088Z,10.20
2022-11-23T14:43:42.313Z,10.20
2022-11-23T14:46:27.760Z,10.00
2022-11-23T14:49:14.990Z,10.00
2022-11-23T14:52:01.519Z,9.70
2022-11-23T14:54:51.797Z,9.60
2022-11-23T14:57:43.461Z,9.70
2022-11-23T15:00:39.049Z,9.90
2022-11-23T15:06:45.819Z,9.60
2022-11-23T15:09:39.845Z,9.20
2022-11-23T15:12:40.947Z,8.90
2022-11-23T15:15:30.989Z,8.60
2022-11-23T15:18:35.195Z,8.50
2022-11-23T15:21:27.815Z,8.50
2022-11-23T15:24:25.440Z,8.50
2022-11-23T15:27:21.347Z,8.60
2022-11-23T15:30:22.654Z,8.30
2022-11-23T15:33:11.652Z,8.20
2022-11-23T15:35:57.840Z,8.30
2022-11-23T15:38:43.174Z,8.40
2022-11-23T15:41:30.150Z,8.50
2022-11-23T15:44:27.186Z,8.50
2022-11-23T15:47:18.690Z,8.60
2022-11-23T15:50:09.390Z,8.60
2022-11-23T15:52:54.580Z,8.50
2022-11-23T15:55:40.581Z,8.40
2022-11-23T15:58:26.211Z,8.20
2022-11-23T16:01:13.732Z,8.20
2022-11-23T16:04:03.740Z,8.30
2022-11-23T16:06:49.229Z,8.30
2022-11-23T16:09:53.924Z,8.10
2022-11-23T16:12:51.589Z,7.90
2022-11-23T16:15:44.083Z,7.90
2022-11-23T16:18:31.777Z,8.00
2022-11-23T16:21:19.528Z,8.00
2022-11-23T16:24:05.276Z,8.10
2022-11-23T16:26:50.570Z,8.10
2022-11-23T16:29:37.215Z,8.00
2022-11-23T16:32:25.376Z,8.10
2022-11-23T16:35:17.528Z,8.20
2022-11-23T16:38:02.786Z,8.20
2022-11-23T16:40:48.208Z,8.30
2022-11-23T16:43:33.686Z,8.30
2022-11-23T16:46:18.946Z,8.20
2022-11-23T16:49:04.400Z,8.20
2022-11-23T16:51:57.062Z,7.90
2022-11-23T16:54:43.064Z,7.80
2022-11-23T16:57:34.076Z,7.50
2022-11-23T17:00:22.296Z,7.50
2022-11-23T17:03:14.454Z,7.60
2022-11-23T17:05:59.706Z,7.70
2022-11-23T17:08:46.129Z,7.80
2022-11-23T17:11:31.709Z,7.80
2022-11-23T17:14:19.191Z,7.80
2022-11-23T17:17:05.397Z,7.80
2022-11-23T17:19:51.274Z,7.60
2022-11-23T17:22:36.509Z,7.30
2022-11-23T17:25:21.929Z,7.30
2022-11-23T17:28:15.701Z,7.20
2022-11-23T17:31:01.575Z,7.10
2022-11-23T17:33:46.882Z,6.90
2022-11-23T17:36:32.344Z,6.70
2022-11-23T17:39:22.635Z,6.70
2022-11-23T17:42:11.067Z,6.70
2022-11-23T17:44:56.629Z,6.70
2022-11-23T17:47:44.179Z,6.60
2022-11-23T17:50:29.636Z,6.70
2022-11-23T17:53:15.068Z,6.90
2022-11-23T17:56:00.655Z,6.80
2022-11-23T17:58:46.726Z,6.90
2022-11-23T18:01:32.833Z,7.00
2022-11-23T18:04:17.877Z,6.90
2022-11-23T18:07:03.913Z,7.00
2022-11-23T18:09:50.278Z,7.10
2022-11-23T18:12:35.494Z,7.00
2022-11-23T18:15:20.853Z,7.10
2022-11-23T18:18:06.435Z,6.90
2022-11-23T18:20:51.970Z,6.90
2022-11-23T18:23:37.528Z,6.90
2022-11-23T18:26:29.946Z,6.90
2022-11-23T18:29:17.255Z,7.00
2022-11-23T18:32:04.376Z,7.10
2022-11-23T18:34:49.993Z,7.20
2022-11-23T18:37:35.637Z,7.20
2022-11-23T18:40:21.234Z,7.30
2022-11-23T18:43:06.693Z,7.40
2022-11-23T18:45:52.241Z,7.20
2022-11-23T18:48:37.984Z,7.10
2022-11-23T18:51:23.467Z,7.10
2022-11-23T18:54:08.565Z,7.10
2022-11-23T18:56:54.060Z,7.30
2022-11-23T18:59:57.304Z,7.30
2022-11-23T19:02:43.323Z,7.40
2022-11-23T19:05:36.133Z,7.50
2022-11-23T19:08:21.334Z,7.50
2022-11-23T19:11:16.088Z,7.50
2022-11-23T19:14:01.535Z,7.60
2022-11-23T19:16:47.238Z,7.50
2022-11-23T19:19:32.847Z,7.40
2022-11-23T19:22:18.534Z,7.30
2022-11-23T19:25:04.197Z,7.20
2022-11-23T19:27:51.215Z,7.30
2022-11-23T19:30:36.794Z,7.40
2022-11-23T19:33:22.209Z,7.50
2022-11-23T19:36:09.846Z,7.40
2022-11-23T19:39:00.490Z,7.40
2022-11-23T19:41:46.941Z,7.40
2022-11-23T19:44:31.981Z,7.40
2022-11-23T19:47:22.727Z,7.50
2022-11-23T19:50:08.777Z,7.50
2022-11-23T19:53:11.974Z,7.30
2022-11-23T19:56:07.221Z,7.30
2022-11-23T19:58:57.810Z,7.30
2022-11-23T20:01:42.938Z,7.10
2022-11-23T20:04:28.941Z,7.10
2022-11-23T20:07:14.199Z,7.10
2022-11-23T20:09:59.535Z,7.00
2022-11-23T20:12:45.018Z,7.00
2022-11-23T20:15:32.340Z,7.00
2022-11-23T20:18:18.125Z,6.80
2022-11-23T20:21:03.299Z,6.80
2022-11-23T20:23:50.537Z,6.70
2022-11-23T20:26:36.524Z,6.60
2022-11-23T20:29:21.789Z,6.60
2022-11-23T20:32:07.187Z,6.60
2022-11-23T20:34:52.574Z,6.70
2022-11-23T20:37:37.971Z,6.80
2022-11-23T20:40:23.400Z,6.60
2022-11-23T20:43:09.438Z,6.70
2022-11-23T20:45:58.439Z,6.80
2022-11-23T20:48:44.693Z,6.80
2022-11-23T20:51:30.744Z,6.70
2022-11-23T20:54:15.768Z,6.50
2022-11-23T20:57:01.353Z,6.50
2022-11-23T20:59:46.779Z,6.50
2022-11-23T21:02:32.234Z,6.50
2022-11-23T21:05:18.845Z,6.50
2022-11-23T21:08:04.110Z,6.50
2022-11-23T21:11:07.950Z,6.60
2022-11-23T21:14:17.230Z,6.60
2022-11-23T21:17:03.879Z,6.60
2022-11-23T21:19:50.168Z,6.60
2022-11-23T21:22:36.007Z,6.60
2022-11-23T21:25:21.182Z,6.50
2022-11-23T21:28:06.635Z,6.30
2022-11-23T21:30:51.902Z,6.20
2022-11-23T21:33:38.043Z,6.20
2022-11-23T21:36:23.447Z,6.20
2022-11-23T21:39:10.714Z,6.10
2022-11-23T21:41:56.391Z,6.20
2022-11-23T21:44:41.606Z,6.20
2022-11-23T21:47:27.135Z,6.20
2022-11-23T21:50:12.576Z,6.10
2022-11-23T21:52:57.610Z,6.00
2022-11-23T21:55:43.009Z,6.10
2022-11-23T21:58:28.521Z,6.10
2022-11-23T22:01:22.527Z,6.20
2022-11-23T22:04:10.854Z,6.20
2022-11-23T22:06:55.970Z,6.30
2022-11-23T22:09:41.369Z,6.40
2022-11-23T22:12:26.667Z,6.40
2022-11-23T22:15:12.188Z,6.40
2022-11-23T22:17:57.599Z,6.40
2022-11-23T22:20:42.866Z,6.50
2022-11-23T22:23:28.155Z,6.60
2022-11-23T22:26:16.020Z,6.80
2022-11-23T22:29:05.938Z,6.80
2022-11-23T22:31:50.967Z,6.90
2022-11-23T22:34:37.937Z,6.80
2022-11-23T22:37:23.346Z,6.80
2022-11-23T22:40:09.376Z,6.80
2022-11-23T22:42:54.786Z,6.70
2022-11-23T22:45:40.160Z,6.80
2022-11-23T22:48:25.597Z,6.80
2022-11-23T22:51:13.491Z,6.80
2022-11-23T22:54:00.453Z,6.90
2022-11-23T22:56:45.609Z,6.90
2022-11-23T22:59:31.175Z,7.00
2022-11-23T23:02:16.547Z,7.00
2022-11-23T23:05:02.147Z,7.00
2022-11-23T23:07:47.497Z,6.90
2022-11-23T23:10:34.481Z,7.00
2022-11-23T23:13:20.878Z,7.00
2022-11-23T23:16:08.587Z,7.00
2022-11-23T23:18:57.972Z,7.00
2022-11-23T23:21:43.064Z,6.90
2022-11-23T23:24:28.335Z,6.90
2022-11-23T23:27:13.899Z,6.90
2022-11-23T23:30:02.114Z,7.00
2022-11-23T23:32:47.625Z,7.00
2022-11-23T23:35:35.481Z,7.10
2022-11-23T23:38:20.968Z,7.10
2022-11-23T23:41:08.075Z,7.10
2022-11-23T23:43:53.231Z,7.10
2022-11-23T23:46:39.226Z,7.20
2022-11-23T23:49:26.262Z,7.20
2022-11-23T23:52:11.304Z,7.20
2022-11-23T23:54:56.555Z,7.20
2022-11-23T23:57:41.962Z,7.20
